createdAt,value
2022-10-21T00:01:40.661Z,4.15
2022-10-21T00:04:09.641Z,4.60
2022-10-21T00:06:38.040Z,4.05
2022-10-21T00:09:06.784Z,4.28
2022-10-21T00:11:35.372Z,3.90
2022-10-21T00:14:05.535Z,5.20
2022-10-21T00:16:34.037Z,4.43
2022-10-21T00:19:02.360Z,4.43
2022-10-21T00:21:30.798Z,4.50
2022-10-21T00:23:59.291Z,4.55
2022-10-21T00:26:27.540Z,5.03
2022-10-21T00:28:57.735Z,4.45
2022-10-21T00:31:29.006Z,4.40
2022-10-21T00:33:57.875Z,4.40
2022-10-21T00:36:26.835Z,4.57
2022-10-21T00:38:55.339Z,4.63
2022-10-21T00:41:24.267Z,4.28
2022-10-21T00:43:59.498Z,4.32
2022-10-21T00:46:41.684Z,4.90
2022-10-21T00:49:20.914Z,5.03
2022-10-21T00:51:53.823Z,5.47
2022-10-21T00:54:24.881Z,4.95
2022-10-21T00:56:56.823Z,5.22
2022-10-21T00:59:28.146Z,5.40
2022-10-21T01:01:58.675Z,6.18
2022-10-21T01:04:27.770Z,5.25
2022-10-21T01:06:56.983Z,5.20
2022-10-21T01:09:26.426Z,5.25
2022-10-21T01:11:55.785Z,4.88
2022-10-21T01:14:44.816Z,5.50
2022-10-21T01:17:40.634Z,6.40
2022-10-21T01:20:40.899Z,4.78
2022-10-21T01:23:44.221Z,5.18
2022-10-21T01:26:47.832Z,5.10
2022-10-21T01:29:48.555Z,5.47
2022-10-21T01:32:27.864Z,5.35
2022-10-21T01:35:04.584Z,5.28
2022-10-21T01:37:41.738Z,6.03
2022-10-21T01:40:16.212Z,4.80
2022-10-21T01:42:53.913Z,5.43
2022-10-21T01:45:30.603Z,5.43
2022-10-21T01:48:04.868Z,5.03
2022-10-21T01:50:40.322Z,5.22
2022-10-21T01:53:13.489Z,4.80
2022-10-21T01:55:43.491Z,5.13
2022-10-21T01:58:17.638Z,5.72
2022-10-21T02:00:47.910Z,4.80
2022-10-21T02:03:22.487Z,4.40
2022-10-21T02:05:51.483Z,4.88
2022-10-21T02:08:20.696Z,5.03
2022-10-21T02:10:52.348Z,5.70
2022-10-21T02:13:26.767Z,4.72
2022-10-21T02:15:58.485Z,4.80
2022-10-21T02:18:28.449Z,4.88
2022-10-21T02:21:01.215Z,6.32
2022-10-21T02:23:37.565Z,4.55
2022-10-21T02:26:06.362Z,4.93
2022-10-21T02:28:35.373Z,4.18
2022-10-21T02:31:17.202Z,3.88
2022-10-21T02:33:57.932Z,4.80
2022-10-21T02:36:38.297Z,4.07
2022-10-21T02:39:15.365Z,4.22
2022-10-21T02:41:46.405Z,4.72
2022-10-21T02:44:15.300Z,4.35
2022-10-21T02:46:45.733Z,3.53
2022-10-21T02:49:16.229Z,3.60
2022-10-21T02:51:45.244Z,3.28
2022-10-21T02:54:14.147Z,3.40
2022-10-21T02:56:42.769Z,3.63
2022-10-21T02:59:11.570Z,3.30
2022-10-21T03:01:40.374Z,4.00
2022-10-21T03:04:08.740Z,3.47
2022-10-21T03:06:38.602Z,4.38
2022-10-21T03:09:07.188Z,3.83
2022-10-21T03:11:35.590Z,3.92
2022-10-21T03:14:04.205Z,3.45
2022-10-21T03:16:32.720Z,3.15
2022-10-21T03:19:01.480Z,3.60
2022-10-21T03:21:30.227Z,2.83
2022-10-21T03:24:00.415Z,3.10
2022-10-21T03:26:29.278Z,3.33
2022-10-21T03:29:01.887Z,3.05
2022-10-21T03:31:30.433Z,2.95
2022-10-21T03:33:58.711Z,2.60
2022-10-21T03:36:27.419Z,3.28
2022-10-21T03:38:55.964Z,2.47
2022-10-21T03:41:26.359Z,3.10
2022-10-21T03:43:55.036Z,3.30
2022-10-21T03:46:23.424Z,2.85
2022-10-21T03:48:52.045Z,3.67
2022-10-21T03:51:20.858Z,2.70
2022-10-21T03:53:50.155Z,2.88
2022-10-21T03:56:18.649Z,3.25
2022-10-21T03:58:49.841Z,3.15
2022-10-21T04:01:18.384Z,2.92
2022-10-21T04:03:47.021Z,3.10
2022-10-21T04:06:15.636Z,2.63
2022-10-21T04:08:44.058Z,3.70
2022-10-21T04:11:13.033Z,3.22
2022-10-21T04:13:41.554Z,3.17
2022-10-21T04:16:16.970Z,3.08
2022-10-21T04:18:45.822Z,3.35
2022-10-21T04:21:14.959Z,3.55
2022-10-21T04:23:44.174Z,2.70
2022-10-21T04:26:13.344Z,3.03
2022-10-21T04:28:41.711Z,2.97
2022-10-21T04:31:12.409Z,2.80
2022-10-21T04:33:41.142Z,2.92
2022-10-21T04:36:10.204Z,2.72
2022-10-21T04:38:39.807Z,3.03
2022-10-21T04:41:08.313Z,3.45
2022-10-21T04:43:39.436Z,2.72
2022-10-21T04:46:29.389Z,2.55
2022-10-21T04:49:11.599Z,2.83
2022-10-21T04:52:00.288Z,3.33
2022-10-21T04:54:40.396Z,3.30
2022-10-21T04:57:33.576Z,3.55
2022-10-21T05:00:14.742Z,3.30
2022-10-21T05:02:44.643Z,2.92
2022-10-21T05:05:13.006Z,2.95
2022-10-21T05:07:41.989Z,2.97
2022-10-21T05:10:11.705Z,3.00
2022-10-21T05:12:40.011Z,3.70
2022-10-21T05:15:10.188Z,3.55
2022-10-21T05:17:39.026Z,3.65
2022-10-21T05:20:11.247Z,3.85
2022-10-21T05:22:41.178Z,4.00
2022-10-21T05:25:10.781Z,4.13
2022-10-21T05:27:39.759Z,4.35
2022-10-21T05:30:09.881Z,3.95
2022-10-21T05:32:38.418Z,4.32
2022-10-21T05:35:09.501Z,4.32
2022-10-21T05:37:37.812Z,5.03
2022-10-21T05:40:08.858Z,6.00
2022-10-21T05:42:37.649Z,4.85
2022-10-21T05:45:07.854Z,4.93
2022-10-21T05:47:36.473Z,5.85
2022-10-21T05:50:06.012Z,5.25
2022-10-21T05:52:36.005Z,4.60
2022-10-21T05:55:04.837Z,4.55
2022-10-21T05:57:33.769Z,4.28
2022-10-21T06:00:02.416Z,3.97
2022-10-21T06:02:31.864Z,4.63
2022-10-21T06:05:00.479Z,3.95
2022-10-21T06:07:29.771Z,4.07
2022-10-21T06:09:59.842Z,3.60
2022-10-21T06:12:28.304Z,3.90
2022-10-21T06:14:56.778Z,4.72
2022-10-21T06:17:25.294Z,3.75
2022-10-21T06:19:54.061Z,3.63
2022-10-21T06:22:22.719Z,4.15
2022-10-21T06:24:51.365Z,3.78
2022-10-21T06:27:21.721Z,3.13
2022-10-21T06:29:50.027Z,3.67
2022-10-21T06:32:18.327Z,3.15
2022-10-21T06:34:46.868Z,3.50
2022-10-21T06:37:15.151Z,3.60
2022-10-21T06:39:43.549Z,3.78
2022-10-21T06:42:15.540Z,3.83
2022-10-21T06:44:57.975Z,4.00
2022-10-21T06:47:42.237Z,3.33
2022-10-21T06:50:22.683Z,4.13
2022-10-21T06:53:02.910Z,4.15
2022-10-21T06:55:41.840Z,4.63
2022-10-21T06:58:19.009Z,4.18
2022-10-21T07:00:49.126Z,4.70
2022-10-21T07:03:34.613Z,4.68
2022-10-21T07:06:15.372Z,4.30
2022-10-21T07:08:59.674Z,4.80
2022-10-21T07:11:45.373Z,4.97
2022-10-21T07:14:25.237Z,5.05
2022-10-21T07:17:15.288Z,4.55
2022-10-21T07:19:45.949Z,4.50
2022-10-21T07:22:15.444Z,5.47
2022-10-21T07:24:49.227Z,4.43
2022-10-21T07:27:17.808Z,4.75
2022-10-21T07:29:52.200Z,4.85
2022-10-21T07:32:22.280Z,4.50
2022-10-21T07:34:53.021Z,4.85
2022-10-21T07:37:21.672Z,4.50
2022-10-21T07:39:50.267Z,4.63
2022-10-21T07:42:18.660Z,4.72
2022-10-21T07:44:48.071Z,4.93
2022-10-21T07:47:17.549Z,4.60
2022-10-21T07:49:47.245Z,4.97
2022-10-21T07:54:48.916Z,4.60
2022-10-21T07:57:18.162Z,5.68
2022-10-21T07:59:46.863Z,4.53
2022-10-21T08:02:15.838Z,4.80
2022-10-21T08:04:44.645Z,5.18
2022-10-21T08:07:14.472Z,5.38
2022-10-21T08:09:42.809Z,4.40
2022-10-21T08:12:14.470Z,5.57
2022-10-21T08:14:45.582Z,6.00
2022-10-21T08:17:13.864Z,5.45
2022-10-21T08:19:42.261Z,4.93
2022-10-21T08:22:10.828Z,5.50
2022-10-21T08:24:42.358Z,5.70
2022-10-21T08:27:10.928Z,5.07
2022-10-21T08:29:40.147Z,6.15
2022-10-21T08:32:08.714Z,6.60
2022-10-21T08:34:38.413Z,6.30
2022-10-21T08:37:07.071Z,5.60
2022-10-21T08:39:35.613Z,5.93
2022-10-21T08:42:12.448Z,5.82
2022-10-21T08:44:45.865Z,5.80
2022-10-21T08:47:26.160Z,6.40
2022-10-21T08:50:03.408Z,5.85
2022-10-21T08:52:40.910Z,6.10
2022-10-21T08:55:17.676Z,5.82
2022-10-21T08:57:48.853Z,5.95
2022-10-21T09:00:25.164Z,6.60
2022-10-21T09:03:09.500Z,6.30
2022-10-21T09:06:00.881Z,6.82
2022-10-21T09:08:39.289Z,7.05
2022-10-21T09:11:20.203Z,6.78
2022-10-21T09:14:14.377Z,5.80
2022-10-21T09:16:55.762Z,6.70
2022-10-21T09:19:36.437Z,6.80
2022-10-21T09:22:35.529Z,7.13
2022-10-21T09:25:19.440Z,6.60
2022-10-21T09:27:55.980Z,6.72
2022-10-21T09:30:29.019Z,7.53
2022-10-21T09:33:01.607Z,7.50
2022-10-21T09:35:38.448Z,6.30
2022-10-21T09:38:19.754Z,5.82
2022-10-21T09:41:06.196Z,5.13
2022-10-21T09:43:34.750Z,6.80
2022-10-21T09:46:05.579Z,6.80
2022-10-21T09:49:14.027Z,5.80
2022-10-21T09:51:35.593Z,5.22
2022-10-21T09:54:09.887Z,5.43
2022-10-21T09:56:44.774Z,4.30
2022-10-21T09:59:16.652Z,4.93
2022-10-21T10:01:49.553Z,5.32
2022-10-21T10:04:24.435Z,5.13
2022-10-21T10:06:53.464Z,5.20
2022-10-21T10:09:28.838Z,4.90
2022-10-21T10:12:02.634Z,4.60
2022-10-21T10:14:34.410Z,5.03
2022-10-21T10:17:29.500Z,5.50
2022-10-21T10:20:17.882Z,5.25
2022-10-21T10:22:48.664Z,4.95
2022-10-21T10:25:25.912Z,5.55
2022-10-21T10:27:57.811Z,5.45
2022-10-21T10:30:37.023Z,4.72
2022-10-21T10:33:15.932Z,3.85
2022-10-21T10:35:50.262Z,3.65
2022-10-21T10:38:25.339Z,3.35
2022-10-21T10:40:57.834Z,3.75
2022-10-21T10:43:31.679Z,3.63
2022-10-21T10:46:02.847Z,3.40
2022-10-21T10:48:39.027Z,2.90
2022-10-21T10:51:26.418Z,2.55
2022-10-21T10:54:19.307Z,2.72
2022-10-21T10:56:54.077Z,3.85
2022-10-21T10:59:33.986Z,4.03
2022-10-21T11:02:20.649Z,5.65
2022-10-21T11:05:08.524Z,5.60
2022-10-21T11:07:45.437Z,5.75
2022-10-21T11:10:27.922Z,5.93
2022-10-21T11:12:57.961Z,5.28
2022-10-21T11:15:34.457Z,4.93
2022-10-21T11:18:30.174Z,4.80
2022-10-21T11:21:09.075Z,4.25
2022-10-21T11:24:13.733Z,3.55
2022-10-21T11:26:51.918Z,3.00
2022-10-21T11:29:35.894Z,2.90
2022-10-21T11:32:19.448Z,3.42
2022-10-21T11:35:01.801Z,3.45
2022-10-21T11:37:46.766Z,2.97
2022-10-21T11:40:27.977Z,3.08
2022-10-21T11:42:58.667Z,3.47
2022-10-21T11:45:42.301Z,2.70
2022-10-21T11:48:21.185Z,3.15
2022-10-21T11:51:03.739Z,3.50
2022-10-21T11:53:50.453Z,3.45
2022-10-21T11:56:30.954Z,3.40
2022-10-21T11:59:13.001Z,3.92
2022-10-21T12:01:49.865Z,3.20
2022-10-21T12:04:26.590Z,3.45
2022-10-21T12:07:11.207Z,2.95
2022-10-21T12:09:51.504Z,4.10
2022-10-21T12:12:24.212Z,3.42
2022-10-21T12:14:57.810Z,3.63
2022-10-21T12:17:27.167Z,4.05
2022-10-21T12:20:01.876Z,4.20
2022-10-21T12:22:34.173Z,3.70
2022-10-21T12:25:15.117Z,4.03
2022-10-21T12:27:46.718Z,4.05
2022-10-21T12:30:24.839Z,3.80
2022-10-21T12:33:15.355Z,3.40
2022-10-21T12:35:50.293Z,4.07
2022-10-21T12:38:26.761Z,3.75
2022-10-21T12:41:28.647Z,3.95
2022-10-21T12:44:05.456Z,3.75
2022-10-21T12:46:40.233Z,3.83
2022-10-21T12:49:23.018Z,3.95
2022-10-21T12:51:56.101Z,3.53
2022-10-21T12:54:30.501Z,3.97
2022-10-21T12:57:06.745Z,3.50
2022-10-21T12:59:37.888Z,3.63
2022-10-21T13:02:28.411Z,3.60
2022-10-21T13:04:59.300Z,3.65
2022-10-21T13:07:40.689Z,4.10
2022-10-21T13:10:36.096Z,3.88
2022-10-21T13:13:31.279Z,4.10
2022-10-21T13:16:01.869Z,4.60
2022-10-21T13:18:56.723Z,4.13
2022-10-21T13:21:37.342Z,4.25
2022-10-21T13:24:17.955Z,4.82
2022-10-21T13:26:51.639Z,5.03
2022-10-21T13:29:28.519Z,5.13
2022-10-21T13:32:24.718Z,5.75
2022-10-21T13:35:01.022Z,5.18
2022-10-21T13:37:35.205Z,5.75
2022-10-21T13:40:07.950Z,5.28
2022-10-21T13:42:40.536Z,5.15
2022-10-21T13:45:25.834Z,5.97
2022-10-21T13:48:15.041Z,6.00
2022-10-21T13:50:46.751Z,5.65
2022-10-21T13:53:36.105Z,5.93
2022-10-21T13:56:07.479Z,6.50
2022-10-21T13:58:40.423Z,6.05
2022-10-21T14:01:13.042Z,5.88
2022-10-21T14:03:42.683Z,5.93
2022-10-21T14:06:13.489Z,7.35
2022-10-21T14:08:45.476Z,6.35
2022-10-21T14:11:19.344Z,7.40
2022-10-21T14:13:51.063Z,7.38
2022-10-21T14:16:31.895Z,6.75
2022-10-21T14:19:16.389Z,6.57
2022-10-21T14:21:52.867Z,6.25
2022-10-21T14:24:29.705Z,6.22
2022-10-21T14:27:02.695Z,6.43
2022-10-21T14:29:34.545Z,6.18
2022-10-21T14:32:08.376Z,6.30
2022-10-21T14:35:06.041Z,6.53
2022-10-21T14:37:45.592Z,6.63
2022-10-21T14:40:24.310Z,5.68
2022-10-21T14:42:53.486Z,5.78
2022-10-21T14:45:27.931Z,6.00
2022-10-21T14:48:10.407Z,6.68
2022-10-21T14:50:44.321Z,6.07
2022-10-21T14:53:18.035Z,5.68
2022-10-21T14:55:49.008Z,5.68
2022-10-21T14:58:24.069Z,6.00
2022-10-21T15:00:57.682Z,5.72
2022-10-21T15:03:42.067Z,5.85
2022-10-21T15:06:14.111Z,6.00
2022-10-21T15:08:45.066Z,6.30
2022-10-21T15:11:36.525Z,5.72
2022-10-21T15:14:28.805Z,5.57
2022-10-21T15:16:59.683Z,5.47
2022-10-21T15:19:35.812Z,5.90
2022-10-21T15:22:06.347Z,5.70
2022-10-21T15:24:44.028Z,5.82
2022-10-21T15:27:19.645Z,6.35
2022-10-21T15:29:50.149Z,5.93
2022-10-21T15:32:25.613Z,5.47
2022-10-21T15:35:03.024Z,4.72
2022-10-21T15:37:32.973Z,5.82
2022-10-21T15:40:01.575Z,6.18
2022-10-21T15:42:30.482Z,6.40
2022-10-21T15:44:59.354Z,5.72
2022-10-21T15:47:29.390Z,6.47
2022-10-21T15:49:57.920Z,5.97
2022-10-21T15:52:28.749Z,5.80
2022-10-21T15:54:59.358Z,5.93
2022-10-21T15:57:28.923Z,6.05
2022-10-21T15:59:57.631Z,6.38
2022-10-21T16:02:27.510Z,6.43
2022-10-21T16:04:56.048Z,6.78
2022-10-21T16:07:34.724Z,6.70
2022-10-21T16:10:03.919Z,7.18
2022-10-21T16:12:32.333Z,7.25
2022-10-21T16:15:01.289Z,8.65
2022-10-21T16:17:30.964Z,7.63
2022-10-21T16:19:59.649Z,8.30
2022-10-21T16:22:31.313Z,7.55
2022-10-21T16:25:01.227Z,8.40
2022-10-21T16:27:43.926Z,8.75
2022-10-21T16:30:22.345Z,8.75
2022-10-21T16:32:51.516Z,8.82
2022-10-21T16:35:21.934Z,9.13
2022-10-21T16:37:52.735Z,9.70
2022-10-21T16:40:24.863Z,9.48
2022-10-21T16:42:54.168Z,8.98
2022-10-21T16:45:25.559Z,10.00
2022-10-21T16:47:58.560Z,9.77
2022-10-21T16:50:42.363Z,9.50
2022-10-21T16:53:15.699Z,8.98
2022-10-21T16:55:46.644Z,9.40
2022-10-21T16:58:15.398Z,9.10
2022-10-21T17:00:45.111Z,9.68
2022-10-21T17:03:13.865Z,10.25
2022-10-21T17:05:46.428Z,9.45
2022-10-21T17:08:14.899Z,9.93
2022-10-21T17:10:46.835Z,10.10
2022-10-21T17:13:16.592Z,9.63
2022-10-21T17:15:45.388Z,9.32
2022-10-21T17:18:15.701Z,10.10
2022-10-21T17:20:45.085Z,9.65
2022-10-21T17:23:13.516Z,10.10
2022-10-21T17:25:42.025Z,9.05
2022-10-21T17:28:11.796Z,9.25
2022-10-21T17:30:42.878Z,11.40
2022-10-21T17:33:14.214Z,9.70
2022-10-21T17:35:43.145Z,10.70
2022-10-21T17:38:11.520Z,9.95
2022-10-21T17:40:40.343Z,10.98
2022-10-21T17:43:08.779Z,10.30
2022-10-21T17:45:39.180Z,10.77
2022-10-21T17:48:07.932Z,10.05
2022-10-21T17:50:38.714Z,10.07
2022-10-21T17:53:08.447Z,10.32
2022-10-21T17:55:36.966Z,10.25
2022-10-21T17:58:06.686Z,10.40
2022-10-21T18:00:34.985Z,10.20
2022-10-21T18:03:04.727Z,11.63
2022-10-21T18:05:33.938Z,10.20
2022-10-21T18:08:03.314Z,10.05
2022-10-21T18:10:31.887Z,10.13
2022-10-21T18:13:00.811Z,10.70
2022-10-21T18:15:29.551Z,9.50
2022-10-21T18:17:57.912Z,10.23
2022-10-21T18:20:28.033Z,10.57
2022-10-21T18:23:35.315Z,11.15
2022-10-21T18:26:08.154Z,11.10
2022-10-21T18:28:43.245Z,10.45
2022-10-21T18:31:15.713Z,10.55
2022-10-21T18:33:46.893Z,9.73
2022-10-21T18:36:19.322Z,9.40
2022-10-21T18:38:49.962Z,9.90
2022-10-21T18:41:26.797Z,10.20
2022-10-21T18:44:02.017Z,8.20
2022-10-21T18:46:33.910Z,8.40
2022-10-21T18:49:05.452Z,7.47
2022-10-21T18:51:35.962Z,7.13
2022-10-21T18:54:07.818Z,7.07
2022-10-21T18:56:38.508Z,7.50
2022-10-21T18:59:10.928Z,7.45
2022-10-21T19:01:42.844Z,6.93
2022-10-21T19:06:46.301Z,7.97
2022-10-21T19:09:19.728Z,7.13
2022-10-21T19:11:49.383Z,7.10
2022-10-21T19:14:20.575Z,7.80
2022-10-21T19:16:51.827Z,8.07
2022-10-21T19:19:22.146Z,8.70
2022-10-21T19:21:51.945Z,9.13
2022-10-21T19:24:21.345Z,8.77
2022-10-21T19:26:55.025Z,8.70
2022-10-21T19:29:27.392Z,8.68
2022-10-21T19:31:58.150Z,9.23
2022-10-21T19:34:52.296Z,9.15
2022-10-21T19:37:24.897Z,8.75
2022-10-21T19:39:53.377Z,8.82
2022-10-21T19:42:25.177Z,8.93
2022-10-21T19:44:59.357Z,9.25
2022-10-21T19:47:32.397Z,8.85
2022-10-21T19:50:16.424Z,9.48
2022-10-21T19:52:50.899Z,8.32
2022-10-21T19:55:22.466Z,8.60
2022-10-21T19:57:54.535Z,8.55
2022-10-21T20:00:25.253Z,8.82
2022-10-21T20:02:54.821Z,8.68
2022-10-21T20:05:35.411Z,8.23
2022-10-21T20:08:08.101Z,8.77
2022-10-21T20:10:40.432Z,19.85
2022-10-21T20:13:10.677Z,8.20
2022-10-21T20:15:48.100Z,8.10
2022-10-21T20:18:19.674Z,9.48
2022-10-21T20:20:50.270Z,8.52
2022-10-21T20:23:21.358Z,8.50
2022-10-21T20:25:54.832Z,9.05
2022-10-21T20:28:31.563Z,8.23
2022-10-21T20:31:01.821Z,8.85
2022-10-21T20:33:35.801Z,8.25
2022-10-21T20:36:08.101Z,8.50
2022-10-21T20:38:38.020Z,8.27
2022-10-21T20:41:08.533Z,8.75
2022-10-21T20:43:39.216Z,8.30
2022-10-21T20:46:11.654Z,7.75
2022-10-21T20:48:42.813Z,8.88
2022-10-21T20:51:13.137Z,8.43
2022-10-21T20:56:21.876Z,8.07
2022-10-21T20:58:51.081Z,8.68
2022-10-21T21:01:22.373Z,8.63
2022-10-21T21:03:51.882Z,7.90
2022-10-21T21:06:22.202Z,8.35
2022-10-21T21:09:15.132Z,7.95
2022-10-21T21:11:43.821Z,7.90
2022-10-21T21:14:15.307Z,8.95
2022-10-21T21:16:44.029Z,8.07
2022-10-21T21:19:13.994Z,8.48
2022-10-21T21:21:44.101Z,7.93
2022-10-21T21:24:15.696Z,7.95
2022-10-21T21:26:44.301Z,7.15
2022-10-21T21:29:15.590Z,8.65
2022-10-21T21:31:50.432Z,7.80
2022-10-21T21:34:21.486Z,7.55
2022-10-21T21:36:50.060Z,8.32
2022-10-21T21:39:20.802Z,7.88
2022-10-21T21:41:49.830Z,8.27
2022-10-21T21:44:18.549Z,7.50
2022-10-21T21:46:47.312Z,7.40
2022-10-21T21:49:16.345Z,7.70
2022-10-21T21:51:55.103Z,8.05
2022-10-21T21:54:25.163Z,7.82
2022-10-21T21:56:57.377Z,8.20
2022-10-21T21:59:43.560Z,8.55
2022-10-21T22:02:12.365Z,8.80
2022-10-21T22:04:42.393Z,8.43
2022-10-21T22:07:11.115Z,8.73
2022-10-21T22:09:42.491Z,7.93
2022-10-21T22:12:15.028Z,8.80
2022-10-21T22:14:44.128Z,9.30
2022-10-21T22:17:12.901Z,9.68
2022-10-21T22:19:43.625Z,8.35
2022-10-21T22:22:13.367Z,9.13
2022-10-21T22:24:43.709Z,8.75
2022-10-21T22:27:12.784Z,10.20
2022-10-21T22:29:41.729Z,8.65
2022-10-21T22:32:18.835Z,8.93
2022-10-21T22:34:49.797Z,8.85
2022-10-21T22:37:18.642Z,9.35
2022-10-21T22:39:50.362Z,8.65
2022-10-21T22:42:19.250Z,8.10
2022-10-21T22:44:49.029Z,7.82
2022-10-21T22:47:18.707Z,8.95
2022-10-21T22:49:47.129Z,8.80
2022-10-21T22:52:18.469Z,9.18
2022-10-21T22:54:49.798Z,9.57
2022-10-21T22:57:23.505Z,9.23
2022-10-21T22:59:55.370Z,13.40
2022-10-21T23:02:24.536Z,12.65
2022-10-21T23:04:53.071Z,8.35
2022-10-21T23:07:21.654Z,6.68
2022-10-21T23:09:51.639Z,5.75
2022-10-21T23:12:29.341Z,5.20
2022-10-21T23:14:57.793Z,5.80
2022-10-21T23:17:26.637Z,6.13
2022-10-21T23:20:02.772Z,5.53
2022-10-21T23:22:34.278Z,5.53
2022-10-21T23:25:03.259Z,4.40
2022-10-21T23:27:33.293Z,4.70
2022-10-21T23:30:03.260Z,3.78
2022-10-21T23:32:33.299Z,3.90
2022-10-21T23:35:01.983Z,2.60
2022-10-21T23:37:30.795Z,2.53
2022-10-21T23:40:00.567Z,2.88
2022-10-21T23:42:29.129Z,2.65
2022-10-21T23:44:59.385Z,2.55
2022-10-21T23:47:28.329Z,2.50
2022-10-21T23:49:59.110Z,2.88
2022-10-21T23:52:30.037Z,2.00
2022-10-21T23:54:58.350Z,2.05
2022-10-21T23:57:27.947Z,2.03
2022-10-21T23:59:56.858Z,1.83
